sensor_id;sensor_type;location;lat;lon;timestamp;temperature;humidity
43995;DHT22;51687;52.160;5.298;2024-03-07T00:00:25;15.60;45.70
43995;DHT22;51687;52.160;5.298;2024-03-07T00:02:52;15.50;45.70
43995;DHT22;51687;52.160;5.298;2024-03-07T00:05:20;15.50;45.90
43995;DHT22;51687;52.160;5.298;2024-03-07T00:07:48;15.60;45.90
43995;DHT22;51687;52.160;5.298;2024-03-07T00:10:14;15.60;45.80
43995;DHT22;51687;52.160;5.298;2024-03-07T00:12:43;15.50;45.70
43995;DHT22;51687;52.160;5.298;2024-03-07T00:15:12;15.60;45.70
43995;DHT22;51687;52.160;5.298;2024-03-07T00:17:40;15.60;45.70
43995;DHT22;51687;52.160;5.298;2024-03-07T00:20:11;15.60;45.40
43995;DHT22;51687;52.160;5.298;2024-03-07T00:22:46;15.60;45.30
43995;DHT22;51687;52.160;5.298;2024-03-07T00:25:13;15.70;45.60
43995;DHT22;51687;52.160;5.298;2024-03-07T00:27:41;15.70;45.60
43995;DHT22;51687;52.160;5.298;2024-03-07T00:30:12;15.70;45.30
43995;DHT22;51687;52.160;5.298;2024-03-07T00:32:46;15.70;44.90
43995;DHT22;51687;52.160;5.298;2024-03-07T00:35:14;15.60;44.90
43995;DHT22;51687;52.160;5.298;2024-03-07T00:37:41;15.60;44.90
43995;DHT22;51687;52.160;5.298;2024-03-07T00:40:08;15.50;45.10
43995;DHT22;51687;52.160;5.298;2024-03-07T00:42:37;15.50;45.00
43995;DHT22;51687;52.160;5.298;2024-03-07T00:45:04;15.50;45.50
43995;DHT22;51687;52.160;5.298;2024-03-07T00:47:31;15.50;45.60
43995;DHT22;51687;52.160;5.298;2024-03-07T00:50:01;15.50;45.60
43995;DHT22;51687;52.160;5.298;2024-03-07T00:52:31;15.50;45.00
43995;DHT22;51687;52.160;5.298;2024-03-07T00:54:59;15.50;44.60
43995;DHT22;51687;52.160;5.298;2024-03-07T00:57:25;15.50;45.00
43995;DHT22;51687;52.160;5.298;2024-03-07T00:59:52;15.50;44.80
43995;DHT22;51687;52.160;5.298;2024-03-07T01:02:19;15.50;44.90
43995;DHT22;51687;52.160;5.298;2024-03-07T01:04:46;15.60;45.20
43995;DHT22;51687;52.160;5.298;2024-03-07T01:07:13;15.60;44.90
43995;DHT22;51687;52.160;5.298;2024-03-07T01:09:40;15.50;44.70
43995;DHT22;51687;52.160;5.298;2024-03-07T01:12:07;15.50;44.60
43995;DHT22;51687;52.160;5.298;2024-03-07T01:14:36;15.40;44.80
43995;DHT22;51687;52.160;5.298;2024-03-07T01:17:03;15.30;44.80
43995;DHT22;51687;52.160;5.298;2024-03-07T01:19:33;15.40;44.60
43995;DHT22;51687;52.160;5.298;2024-03-07T01:22:00;15.30;44.60
43995;DHT22;51687;52.160;5.298;2024-03-07T01:24:27;15.40;44.70
43995;DHT22;51687;52.160;5.298;2024-03-07T01:26:54;15.40;44.60
43995;DHT22;51687;52.160;5.298;2024-03-07T01:29:21;15.40;44.60
43995;DHT22;51687;52.160;5.298;2024-03-07T01:31:48;15.50;44.50
43995;DHT22;51687;52.160;5.298;2024-03-07T01:34:15;15.50;45.00
43995;DHT22;51687;52.160;5.298;2024-03-07T01:36:42;15.50;44.50
43995;DHT22;51687;52.160;5.298;2024-03-07T01:39:09;15.60;44.10
43995;DHT22;51687;52.160;5.298;2024-03-07T01:41:37;15.60;43.90
43995;DHT22;51687;52.160;5.298;2024-03-07T01:44:04;15.60;44.40
43995;DHT22;51687;52.160;5.298;2024-03-07T01:46:31;15.60;44.50
43995;DHT22;51687;52.160;5.298;2024-03-07T01:48:59;15.60;43.70
43995;DHT22;51687;52.160;5.298;2024-03-07T01:51:26;15.70;44.00
43995;DHT22;51687;52.160;5.298;2024-03-07T01:53:53;15.70;43.70
43995;DHT22;51687;52.160;5.298;2024-03-07T01:56:21;15.70;43.50
43995;DHT22;51687;52.160;5.298;2024-03-07T01:58:49;15.70;43.70
43995;DHT22;51687;52.160;5.298;2024-03-07T02:01:16;15.80;43.40
43995;DHT22;51687;52.160;5.298;2024-03-07T02:03:43;15.80;43.60
43995;DHT22;51687;52.160;5.298;2024-03-07T02:06:11;15.80;43.60
43995;DHT22;51687;52.160;5.298;2024-03-07T02:08:39;15.80;43.10
43995;DHT22;51687;52.160;5.298;2024-03-07T02:11:06;15.80;43.20
43995;DHT22;51687;52.160;5.298;2024-03-07T02:13:33;15.80;43.20
43995;DHT22;51687;52.160;5.298;2024-03-07T02:16:00;15.80;42.90
43995;DHT22;51687;52.160;5.298;2024-03-07T02:18:26;15.80;43.90
43995;DHT22;51687;52.160;5.298;2024-03-07T02:20:54;15.80;43.60
43995;DHT22;51687;52.160;5.298;2024-03-07T02:23:22;15.90;44.10
43995;DHT22;51687;52.160;5.298;2024-03-07T02:25:48;15.90;44.10
43995;DHT22;51687;52.160;5.298;2024-03-07T02:28:15;16.00;43.80
43995;DHT22;51687;52.160;5.298;2024-03-07T02:30:42;16.00;43.40
43995;DHT22;51687;52.160;5.298;2024-03-07T02:33:12;16.00;44.00
43995;DHT22;51687;52.160;5.298;2024-03-07T02:35:41;16.00;44.30
43995;DHT22;51687;52.160;5.298;2024-03-07T02:38:08;16.00;44.60
43995;DHT22;51687;52.160;5.298;2024-03-07T02:40:35;16.10;44.50
43995;DHT22;51687;52.160;5.298;2024-03-07T02:43:02;16.10;45.30
43995;DHT22;51687;52.160;5.298;2024-03-07T02:45:32;16.10;44.90
43995;DHT22;51687;52.160;5.298;2024-03-07T02:47:58;16.10;44.80
43995;DHT22;51687;52.160;5.298;2024-03-07T02:50:26;16.20;45.00
43995;DHT22;51687;52.160;5.298;2024-03-07T02:52:52;16.20;44.90
43995;DHT22;51687;52.160;5.298;2024-03-07T02:55:20;16.20;45.00
43995;DHT22;51687;52.160;5.298;2024-03-07T02:57:47;16.20;45.10
43995;DHT22;51687;52.160;5.298;2024-03-07T03:00:14;16.30;45.00
43995;DHT22;51687;52.160;5.298;2024-03-07T03:02:48;16.30;44.90
43995;DHT22;51687;52.160;5.298;2024-03-07T03:05:16;16.30;44.80
43995;DHT22;51687;52.160;5.298;2024-03-07T03:07:43;16.30;45.20
43995;DHT22;51687;52.160;5.298;2024-03-07T03:10:23;16.30;44.20
43995;DHT22;51687;52.160;5.298;2024-03-07T03:12:56;16.30;44.20
43995;DHT22;51687;52.160;5.298;2024-03-07T03:15:28;16.30;44.00
43995;DHT22;51687;52.160;5.298;2024-03-07T03:17:56;16.30;45.00
43995;DHT22;51687;52.160;5.298;2024-03-07T03:20:27;16.20;44.60
43995;DHT22;51687;52.160;5.298;2024-03-07T03:23:06;16.30;44.30
43995;DHT22;51687;52.160;5.298;2024-03-07T03:25:46;16.30;44.00
43995;DHT22;51687;52.160;5.298;2024-03-07T03:28:15;16.30;43.60
43995;DHT22;51687;52.160;5.298;2024-03-07T03:30:41;16.30;44.10
43995;DHT22;51687;52.160;5.298;2024-03-07T03:33:09;16.30;44.20
43995;DHT22;51687;52.160;5.298;2024-03-07T03:35:37;16.30;43.70
43995;DHT22;51687;52.160;5.298;2024-03-07T03:40:32;16.30;44.40
43995;DHT22;51687;52.160;5.298;2024-03-07T03:42:59;16.30;42.80
43995;DHT22;51687;52.160;5.298;2024-03-07T03:45:26;16.30;42.70
43995;DHT22;51687;52.160;5.298;2024-03-07T03:47:54;16.20;43.10
43995;DHT22;51687;52.160;5.298;2024-03-07T03:50:21;16.20;43.60
43995;DHT22;51687;52.160;5.298;2024-03-07T03:52:52;16.30;43.90
43995;DHT22;51687;52.160;5.298;2024-03-07T03:55:19;16.20;43.30
43995;DHT22;51687;52.160;5.298;2024-03-07T03:57:47;16.20;44.10
43995;DHT22;51687;52.160;5.298;2024-03-07T04:00:15;16.10;43.10
43995;DHT22;51687;52.160;5.298;2024-03-07T04:02:46;15.90;42.80
43995;DHT22;51687;52.160;5.298;2024-03-07T04:05:18;15.80;42.70
43995;DHT22;51687;52.160;5.298;2024-03-07T04:07:46;15.50;42.90
43995;DHT22;51687;52.160;5.298;2024-03-07T04:10:16;15.30;43.30
43995;DHT22;51687;52.160;5.298;2024-03-07T04:12:44;15.10;43.90
43995;DHT22;51687;52.160;5.298;2024-03-07T04:15:13;15.10;44.10
43995;DHT22;51687;52.160;5.298;2024-03-07T04:17:44;14.90;44.10
43995;DHT22;51687;52.160;5.298;2024-03-07T04:20:13;14.80;44.50
43995;DHT22;51687;52.160;5.298;2024-03-07T04:22:40;14.70;44.60
43995;DHT22;51687;52.160;5.298;2024-03-07T04:25:08;14.60;44.70
43995;DHT22;51687;52.160;5.298;2024-03-07T04:30:07;14.50;44.90
43995;DHT22;51687;52.160;5.298;2024-03-07T04:32:34;14.20;45.50
43995;DHT22;51687;52.160;5.298;2024-03-07T04:35:01;14.10;45.90
43995;DHT22;51687;52.160;5.298;2024-03-07T04:37:30;13.90;45.90
43995;DHT22;51687;52.160;5.298;2024-03-07T04:44:52;13.80;46.10
43995;DHT22;51687;52.160;5.298;2024-03-07T04:47:19;13.50;46.60
43995;DHT22;51687;52.160;5.298;2024-03-07T04:49:46;13.40;46.90
43995;DHT22;51687;52.160;5.298;2024-03-07T04:59:34;13.30;47.10
43995;DHT22;51687;52.160;5.298;2024-03-07T05:02:01;13.10;47.40
43995;DHT22;51687;52.160;5.298;2024-03-07T05:04:28;13.00;47.40
43995;DHT22;51687;52.160;5.298;2024-03-07T05:06:57;12.90;47.40
43995;DHT22;51687;52.160;5.298;2024-03-07T05:09:24;12.90;47.60
43995;DHT22;51687;52.160;5.298;2024-03-07T05:11:53;12.80;47.70
43995;DHT22;51687;52.160;5.298;2024-03-07T05:14:20;12.70;47.70
43995;DHT22;51687;52.160;5.298;2024-03-07T05:16:48;12.70;47.80
43995;DHT22;51687;52.160;5.298;2024-03-07T05:19:35;12.60;48.00
43995;DHT22;51687;52.160;5.298;2024-03-07T05:22:03;12.60;48.10
43995;DHT22;51687;52.160;5.298;2024-03-07T05:24:33;12.50;48.00
43995;DHT22;51687;52.160;5.298;2024-03-07T05:27:01;12.50;48.30
43995;DHT22;51687;52.160;5.298;2024-03-07T05:29:28;12.60;51.20
43995;DHT22;51687;52.160;5.298;2024-03-07T05:31:55;12.40;48.20
43995;DHT22;51687;52.160;5.298;2024-03-07T05:34:22;12.30;48.10
43995;DHT22;51687;52.160;5.298;2024-03-07T05:36:51;12.30;48.20
43995;DHT22;51687;52.160;5.298;2024-03-07T05:39:18;12.20;48.50
43995;DHT22;51687;52.160;5.298;2024-03-07T05:41:45;12.20;48.40
43995;DHT22;51687;52.160;5.298;2024-03-07T05:44:13;12.10;48.60
43995;DHT22;51687;52.160;5.298;2024-03-07T05:46:42;12.10;48.60
43995;DHT22;51687;52.160;5.298;2024-03-07T05:49:16;12.00;48.60
43995;DHT22;51687;52.160;5.298;2024-03-07T05:51:47;12.00;48.70
43995;DHT22;51687;52.160;5.298;2024-03-07T05:54:14;12.10;50.20
43995;DHT22;51687;52.160;5.298;2024-03-07T05:56:41;12.20;51.40
43995;DHT22;51687;52.160;5.298;2024-03-07T05:59:08;12.50;52.10
43995;DHT22;51687;52.160;5.298;2024-03-07T06:01:37;12.80;51.50
43995;DHT22;51687;52.160;5.298;2024-03-07T06:04:05;13.00;50.70
43995;DHT22;51687;52.160;5.298;2024-03-07T06:06:37;13.30;50.90
43995;DHT22;51687;52.160;5.298;2024-03-07T06:09:07;13.50;50.30
43995;DHT22;51687;52.160;5.298;2024-03-07T06:14:05;13.70;48.50
43995;DHT22;51687;52.160;5.298;2024-03-07T06:16:37;14.10;50.90
43995;DHT22;51687;52.160;5.298;2024-03-07T06:19:07;14.10;44.90
43995;DHT22;51687;52.160;5.298;2024-03-07T06:21:38;13.70;45.20
43995;DHT22;51687;52.160;5.298;2024-03-07T06:24:09;13.20;46.50
43995;DHT22;51687;52.160;5.298;2024-03-07T06:26:39;12.80;47.90
43995;DHT22;51687;52.160;5.298;2024-03-07T06:29:26;12.30;49.10
43995;DHT22;51687;52.160;5.298;2024-03-07T06:31:56;11.90;50.40
43995;DHT22;51687;52.160;5.298;2024-03-07T06:34:24;11.60;52.10
43995;DHT22;51687;52.160;5.298;2024-03-07T06:36:50;11.30;52.50
43995;DHT22;51687;52.160;5.298;2024-03-07T06:39:19;11.00;53.30
43995;DHT22;51687;52.160;5.298;2024-03-07T06:41:48;10.90;53.80
43995;DHT22;51687;52.160;5.298;2024-03-07T06:44:15;10.70;54.30
43995;DHT22;51687;52.160;5.298;2024-03-07T06:46:44;10.70;55.60
43995;DHT22;51687;52.160;5.298;2024-03-07T06:49:12;10.50;55.00
43995;DHT22;51687;52.160;5.298;2024-03-07T06:51:39;10.40;55.50
43995;DHT22;51687;52.160;5.298;2024-03-07T06:54:06;10.30;55.80
43995;DHT22;51687;52.160;5.298;2024-03-07T06:56:33;10.30;56.20
43995;DHT22;51687;52.160;5.298;2024-03-07T06:59:00;10.20;56.40
43995;DHT22;51687;52.160;5.298;2024-03-07T07:01:31;10.10;56.80
43995;DHT22;51687;52.160;5.298;2024-03-07T07:03:58;10.10;57.00
43995;DHT22;51687;52.160;5.298;2024-03-07T07:06:25;10.00;57.30
43995;DHT22;51687;52.160;5.298;2024-03-07T07:08:52;10.00;57.60
43995;DHT22;51687;52.160;5.298;2024-03-07T07:11:19;10.10;62.80
43995;DHT22;51687;52.160;5.298;2024-03-07T07:13:46;9.90;58.10
43995;DHT22;51687;52.160;5.298;2024-03-07T07:16:13;9.80;58.20
43995;DHT22;51687;52.160;5.298;2024-03-07T07:18:40;9.80;58.50
43995;DHT22;51687;52.160;5.298;2024-03-07T07:21:07;9.80;58.80
43995;DHT22;51687;52.160;5.298;2024-03-07T07:23:38;9.70;59.00
43995;DHT22;51687;52.160;5.298;2024-03-07T07:26:05;9.70;59.10
43995;DHT22;51687;52.160;5.298;2024-03-07T07:28:32;9.80;60.50
43995;DHT22;51687;52.160;5.298;2024-03-07T07:30:59;10.00;62.60
43995;DHT22;51687;52.160;5.298;2024-03-07T07:33:26;10.30;63.00
43995;DHT22;51687;52.160;5.298;2024-03-07T07:35:59;10.60;60.90
43995;DHT22;51687;52.160;5.298;2024-03-07T07:38:27;11.00;60.80
43995;DHT22;51687;52.160;5.298;2024-03-07T07:40:53;11.30;62.90
43995;DHT22;51687;52.160;5.298;2024-03-07T07:43:20;11.60;59.50
43995;DHT22;51687;52.160;5.298;2024-03-07T07:46:03;11.80;58.20
43995;DHT22;51687;52.160;5.298;2024-03-07T07:48:30;12.10;59.80
43995;DHT22;51687;52.160;5.298;2024-03-07T07:50:57;12.30;57.80
43995;DHT22;51687;52.160;5.298;2024-03-07T07:53:24;12.50;58.20
43995;DHT22;51687;52.160;5.298;2024-03-07T07:55:51;12.70;56.30
43995;DHT22;51687;52.160;5.298;2024-03-07T07:58:18;12.80;57.10
43995;DHT22;51687;52.160;5.298;2024-03-07T08:05:44;13.00;57.80
43995;DHT22;51687;52.160;5.298;2024-03-07T08:10:45;13.60;70.10
43995;DHT22;51687;52.160;5.298;2024-03-07T08:15:42;13.90;55.90
43995;DHT22;51687;52.160;5.298;2024-03-07T08:18:09;14.00;53.60
43995;DHT22;51687;52.160;5.298;2024-03-07T08:20:38;14.00;53.50
43995;DHT22;51687;52.160;5.298;2024-03-07T08:23:07;14.10;66.00
43995;DHT22;51687;52.160;5.298;2024-03-07T08:25:34;14.20;59.10
43995;DHT22;51687;52.160;5.298;2024-03-07T08:28:01;14.30;58.70
43995;DHT22;51687;52.160;5.298;2024-03-07T08:30:28;14.50;58.20
43995;DHT22;51687;52.160;5.298;2024-03-07T08:32:56;14.60;56.40
43995;DHT22;51687;52.160;5.298;2024-03-07T08:35:24;14.70;55.50
43995;DHT22;51687;52.160;5.298;2024-03-07T08:37:53;14.80;57.00
43995;DHT22;51687;52.160;5.298;2024-03-07T08:40:25;14.90;53.80
43995;DHT22;51687;52.160;5.298;2024-03-07T08:42:55;15.00;55.50
43995;DHT22;51687;52.160;5.298;2024-03-07T08:45:28;15.10;55.40
43995;DHT22;51687;52.160;5.298;2024-03-07T08:47:56;15.20;67.90
43995;DHT22;51687;52.160;5.298;2024-03-07T08:50:26;15.30;56.10
43995;DHT22;51687;52.160;5.298;2024-03-07T08:52:54;15.30;55.80
43995;DHT22;51687;52.160;5.298;2024-03-07T08:55:23;15.40;58.00
43995;DHT22;51687;52.160;5.298;2024-03-07T08:57:51;15.50;55.20
43995;DHT22;51687;52.160;5.298;2024-03-07T09:00:22;15.50;55.50
43995;DHT22;51687;52.160;5.298;2024-03-07T09:02:57;15.60;56.70
43995;DHT22;51687;52.160;5.298;2024-03-07T09:05:27;15.70;57.00
43995;DHT22;51687;52.160;5.298;2024-03-07T09:07:55;15.80;56.90
43995;DHT22;51687;52.160;5.298;2024-03-07T09:10:22;15.90;56.70
43995;DHT22;51687;52.160;5.298;2024-03-07T09:12:51;16.00;55.70
43995;DHT22;51687;52.160;5.298;2024-03-07T09:40:13;16.20;55.60
43995;DHT22;51687;52.160;5.298;2024-03-07T09:42:42;16.30;46.30
43995;DHT22;51687;52.160;5.298;2024-03-07T09:45:14;16.10;58.10
43995;DHT22;51687;52.160;5.298;2024-03-07T09:47:45;16.10;51.80
43995;DHT22;51687;52.160;5.298;2024-03-07T10:12:51;16.10;52.40
43995;DHT22;51687;52.160;5.298;2024-03-07T10:15:20;16.50;54.20
43995;DHT22;51687;52.160;5.298;2024-03-07T10:17:48;16.60;55.90
43995;DHT22;51687;52.160;5.298;2024-03-07T10:20:17;16.60;50.00
43995;DHT22;51687;52.160;5.298;2024-03-07T10:22:47;16.70;59.80
43995;DHT22;51687;52.160;5.298;2024-03-07T10:25:21;16.60;50.70
43995;DHT22;51687;52.160;5.298;2024-03-07T10:27:52;16.60;50.80
43995;DHT22;51687;52.160;5.298;2024-03-07T10:30:20;16.50;50.10
43995;DHT22;51687;52.160;5.298;2024-03-07T10:32:50;16.50;49.40
43995;DHT22;51687;52.160;5.298;2024-03-07T10:35:24;16.60;52.30
43995;DHT22;51687;52.160;5.298;2024-03-07T10:37:56;16.60;48.30
43995;DHT22;51687;52.160;5.298;2024-03-07T10:40:23;16.60;46.80
43995;DHT22;51687;52.160;5.298;2024-03-07T10:42:56;16.60;48.20
43995;DHT22;51687;52.160;5.298;2024-03-07T10:45:28;16.60;50.90
43995;DHT22;51687;52.160;5.298;2024-03-07T10:47:57;16.60;46.90
43995;DHT22;51687;52.160;5.298;2024-03-07T10:50:52;16.60;49.70
43995;DHT22;51687;52.160;5.298;2024-03-07T10:57:15;16.70;51.80
43995;DHT22;51687;52.160;5.298;2024-03-07T10:59:50;16.70;50.80
43995;DHT22;51687;52.160;5.298;2024-03-07T11:48:05;16.70;49.80
43995;DHT22;51687;52.160;5.298;2024-03-07T11:50:40;16.70;49.20
43995;DHT22;51687;52.160;5.298;2024-03-07T11:53:08;16.70;50.60
43995;DHT22;51687;52.160;5.298;2024-03-07T12:48:09;16.80;52.00
43995;DHT22;51687;52.160;5.298;2024-03-07T12:50:41;17.80;46.70
43995;DHT22;51687;52.160;5.298;2024-03-07T12:53:08;17.80;46.30
43995;DHT22;51687;52.160;5.298;2024-03-07T12:55:39;17.90;45.40
43995;DHT22;51687;52.160;5.298;2024-03-07T12:58:09;17.90;43.90
43995;DHT22;51687;52.160;5.298;2024-03-07T13:00:39;17.90;42.80
43995;DHT22;51687;52.160;5.298;2024-03-07T15:01:05;17.90;42.80
43995;DHT22;51687;52.160;5.298;2024-03-07T15:26:19;18.40;44.80
43995;DHT22;51687;52.160;5.298;2024-03-07T15:28:51;18.10;44.70
43995;DHT22;51687;52.160;5.298;2024-03-07T15:31:18;18.10;46.40
43995;DHT22;51687;52.160;5.298;2024-03-07T15:33:46;18.10;46.70
43995;DHT22;51687;52.160;5.298;2024-03-07T15:36:14;18.20;45.50
43995;DHT22;51687;52.160;5.298;2024-03-07T15:38:40;18.20;48.30
43995;DHT22;51687;52.160;5.298;2024-03-07T15:41:08;18.20;48.00
43995;DHT22;51687;52.160;5.298;2024-03-07T15:43:39;18.30;47.50
43995;DHT22;51687;52.160;5.298;2024-03-07T15:46:08;18.20;43.50
43995;DHT22;51687;52.160;5.298;2024-03-07T15:48:38;18.20;46.30
43995;DHT22;51687;52.160;5.298;2024-03-07T15:51:05;18.20;47.60
43995;DHT22;51687;52.160;5.298;2024-03-07T15:53:34;18.20;48.40
43995;DHT22;51687;52.160;5.298;2024-03-07T15:56:02;18.30;48.10
43995;DHT22;51687;52.160;5.298;2024-03-07T15:58:30;18.30;47.20
43995;DHT22;51687;52.160;5.298;2024-03-07T16:00:57;18.30;47.10
43995;DHT22;51687;52.160;5.298;2024-03-07T16:03:24;18.30;46.70
43995;DHT22;51687;52.160;5.298;2024-03-07T16:05:51;18.20;45.10
43995;DHT22;51687;52.160;5.298;2024-03-07T16:08:18;18.20;45.80
43995;DHT22;51687;52.160;5.298;2024-03-07T16:10:46;18.20;44.70
43995;DHT22;51687;52.160;5.298;2024-03-07T16:13:15;18.00;42.50
43995;DHT22;51687;52.160;5.298;2024-03-07T16:15:43;17.80;41.10
43995;DHT22;51687;52.160;5.298;2024-03-07T16:18:10;17.70;42.50
43995;DHT22;51687;52.160;5.298;2024-03-07T16:23:07;17.50;41.80
43995;DHT22;51687;52.160;5.298;2024-03-07T16:25:35;17.00;45.60
43995;DHT22;51687;52.160;5.298;2024-03-07T16:28:05;17.10;47.70
43995;DHT22;51687;52.160;5.298;2024-03-07T16:30:34;17.00;43.80
43995;DHT22;51687;52.160;5.298;2024-03-07T16:33:01;16.90;43.00
43995;DHT22;51687;52.160;5.298;2024-03-07T16:45:26;16.80;44.10
43995;DHT22;51687;52.160;5.298;2024-03-07T16:52:57;16.30;45.80
43995;DHT22;51687;52.160;5.298;2024-03-07T16:57:53;16.00;45.60
43995;DHT22;51687;52.160;5.298;2024-03-07T17:00:35;15.80;45.50
43995;DHT22;51687;52.160;5.298;2024-03-07T17:03:09;15.70;50.30
43995;DHT22;51687;52.160;5.298;2024-03-07T17:05:38;15.70;46.40
43995;DHT22;51687;52.160;5.298;2024-03-07T17:23:00;15.60;50.50
43995;DHT22;51687;52.160;5.298;2024-03-07T17:25:27;16.50;58.80
43995;DHT22;51687;52.160;5.298;2024-03-07T17:27:56;16.60;56.60
43995;DHT22;51687;52.160;5.298;2024-03-07T17:30:27;16.70;56.10
43995;DHT22;51687;52.160;5.298;2024-03-07T17:32:58;16.80;57.60
43995;DHT22;51687;52.160;5.298;2024-03-07T17:35:26;16.90;56.20
43995;DHT22;51687;52.160;5.298;2024-03-07T17:37:56;16.90;57.10
43995;DHT22;51687;52.160;5.298;2024-03-07T17:40:23;17.00;54.40
43995;DHT22;51687;52.160;5.298;2024-03-07T17:42:53;17.00;55.60
43995;DHT22;51687;52.160;5.298;2024-03-07T17:45:25;17.00;56.30
43995;DHT22;51687;52.160;5.298;2024-03-07T17:47:55;17.10;56.40
43995;DHT22;51687;52.160;5.298;2024-03-07T18:22:59;17.10;56.30
43995;DHT22;51687;52.160;5.298;2024-03-07T18:25:26;17.30;54.50
43995;DHT22;51687;52.160;5.298;2024-03-07T18:50:21;17.30;57.20
43995;DHT22;51687;52.160;5.298;2024-03-07T18:52:49;17.00;53.90
43995;DHT22;51687;52.160;5.298;2024-03-07T18:55:20;17.00;54.40
43995;DHT22;51687;52.160;5.298;2024-03-07T18:57:56;16.90;54.00
43995;DHT22;51687;52.160;5.298;2024-03-07T19:00:29;16.90;55.30
43995;DHT22;51687;52.160;5.298;2024-03-07T19:03:06;16.80;55.80
43995;DHT22;51687;52.160;5.298;2024-03-07T19:05:37;16.90;57.80
43995;DHT22;51687;52.160;5.298;2024-03-07T19:08:05;17.00;56.20
43995;DHT22;51687;52.160;5.298;2024-03-07T19:10:48;17.00;55.80
43995;DHT22;51687;52.160;5.298;2024-03-07T19:13:15;17.00;54.80
43995;DHT22;51687;52.160;5.298;2024-03-07T19:15:52;17.00;54.10
43995;DHT22;51687;52.160;5.298;2024-03-07T19:18:22;16.90;55.40
43995;DHT22;51687;52.160;5.298;2024-03-07T19:20:50;16.90;55.20
43995;DHT22;51687;52.160;5.298;2024-03-07T19:23:17;16.90;56.00
43995;DHT22;51687;52.160;5.298;2024-03-07T19:25:47;16.90;54.70
43995;DHT22;51687;52.160;5.298;2024-03-07T19:28:20;16.90;54.50
43995;DHT22;51687;52.160;5.298;2024-03-07T19:30:48;16.80;55.70
43995;DHT22;51687;52.160;5.298;2024-03-07T19:33:18;16.80;56.10
43995;DHT22;51687;52.160;5.298;2024-03-07T19:38:13;16.90;57.80
43995;DHT22;51687;52.160;5.298;2024-03-07T19:40:40;17.00;56.40
43995;DHT22;51687;52.160;5.298;2024-03-07T19:43:06;16.90;55.80
43995;DHT22;51687;52.160;5.298;2024-03-07T19:45:36;17.00;55.00
43995;DHT22;51687;52.160;5.298;2024-03-07T19:48:03;16.90;55.00
43995;DHT22;51687;52.160;5.298;2024-03-07T19:50:30;16.90;55.60
43995;DHT22;51687;52.160;5.298;2024-03-07T19:53:03;16.80;56.20
43995;DHT22;51687;52.160;5.298;2024-03-07T19:55:31;16.90;55.80
43995;DHT22;51687;52.160;5.298;2024-03-07T19:57:58;16.80;56.10
43995;DHT22;51687;52.160;5.298;2024-03-07T20:00:25;16.90;55.60
43995;DHT22;51687;52.160;5.298;2024-03-07T20:02:58;16.80;55.50
43995;DHT22;51687;52.160;5.298;2024-03-07T20:05:25;16.80;55.60
43995;DHT22;51687;52.160;5.298;2024-03-07T20:07:52;16.90;57.70
43995;DHT22;51687;52.160;5.298;2024-03-07T20:10:20;16.80;55.70
43995;DHT22;51687;52.160;5.298;2024-03-07T20:12:47;16.80;56.40
43995;DHT22;51687;52.160;5.298;2024-03-07T20:15:14;16.80;55.50
43995;DHT22;51687;52.160;5.298;2024-03-07T20:17:41;16.80;56.60
43995;DHT22;51687;52.160;5.298;2024-03-07T20:20:10;16.80;55.90
43995;DHT22;51687;52.160;5.298;2024-03-07T20:22:44;16.80;56.60
43995;DHT22;51687;52.160;5.298;2024-03-07T20:25:12;16.80;56.40
43995;DHT22;51687;52.160;5.298;2024-03-07T20:27:40;16.80;57.30
43995;DHT22;51687;52.160;5.298;2024-03-07T20:30:08;16.80;57.00
43995;DHT22;51687;52.160;5.298;2024-03-07T20:32:36;16.80;57.90
43995;DHT22;51687;52.160;5.298;2024-03-07T20:35:03;16.90;57.70
43995;DHT22;51687;52.160;5.298;2024-03-07T20:37:34;16.90;57.60
43995;DHT22;51687;52.160;5.298;2024-03-07T20:40:02;17.00;57.70
43995;DHT22;51687;52.160;5.298;2024-03-07T20:42:36;17.00;57.10
43995;DHT22;51687;52.160;5.298;2024-03-07T20:45:09;17.00;56.80
43995;DHT22;51687;52.160;5.298;2024-03-07T20:47:40;17.00;56.70
43995;DHT22;51687;52.160;5.298;2024-03-07T20:50:17;17.00;57.00
43995;DHT22;51687;52.160;5.298;2024-03-07T20:52:45;17.00;56.10
43995;DHT22;51687;52.160;5.298;2024-03-07T20:55:12;17.00;54.70
43995;DHT22;51687;52.160;5.298;2024-03-07T20:57:42;16.90;56.80
43995;DHT22;51687;52.160;5.298;2024-03-07T21:00:13;16.90;56.50
43995;DHT22;51687;52.160;5.298;2024-03-07T21:02:42;16.90;56.80
43995;DHT22;51687;52.160;5.298;2024-03-07T21:05:09;16.90;56.60
43995;DHT22;51687;52.160;5.298;2024-03-07T21:07:40;16.80;55.50
43995;DHT22;51687;52.160;5.298;2024-03-07T21:10:08;16.80;56.50
43995;DHT22;51687;52.160;5.298;2024-03-07T21:12:37;16.80;55.60
43995;DHT22;51687;52.160;5.298;2024-03-07T21:15:06;16.80;55.80
43995;DHT22;51687;52.160;5.298;2024-03-07T21:17:34;16.80;56.60
43995;DHT22;51687;52.160;5.298;2024-03-07T21:20:02;16.80;56.30
43995;DHT22;51687;52.160;5.298;2024-03-07T21:22:38;16.70;55.40
43995;DHT22;51687;52.160;5.298;2024-03-07T21:25:10;16.70;56.90
43995;DHT22;51687;52.160;5.298;2024-03-07T21:27:39;16.70;55.40
43995;DHT22;51687;52.160;5.298;2024-03-07T21:30:07;16.60;55.70
43995;DHT22;51687;52.160;5.298;2024-03-07T21:32:36;16.60;55.80
43995;DHT22;51687;52.160;5.298;2024-03-07T21:35:04;16.60;57.30
43995;DHT22;51687;52.160;5.298;2024-03-07T21:37:34;16.60;56.50
43995;DHT22;51687;52.160;5.298;2024-03-07T21:40:03;16.60;56.00
43995;DHT22;51687;52.160;5.298;2024-03-07T21:42:31;16.60;56.10
43995;DHT22;51687;52.160;5.298;2024-03-07T21:44:58;16.60;57.80
43995;DHT22;51687;52.160;5.298;2024-03-07T21:47:25;16.50;56.00
43995;DHT22;51687;52.160;5.298;2024-03-07T21:49:52;16.20;54.10
43995;DHT22;51687;52.160;5.298;2024-03-07T21:57:14;15.90;52.20
43995;DHT22;51687;52.160;5.298;2024-03-07T22:02:08;14.70;51.60
43995;DHT22;51687;52.160;5.298;2024-03-07T22:04:39;14.20;52.60
43995;DHT22;51687;52.160;5.298;2024-03-07T22:07:18;13.90;52.80
43995;DHT22;51687;52.160;5.298;2024-03-07T22:09:45;13.70;53.00
43995;DHT22;51687;52.160;5.298;2024-03-07T22:12:13;13.40;53.40
43995;DHT22;51687;52.160;5.298;2024-03-07T22:14:43;13.20;53.70
43995;DHT22;51687;52.160;5.298;2024-03-07T22:17:10;13.10;54.00
43995;DHT22;51687;52.160;5.298;2024-03-07T22:19:37;12.90;54.30
43995;DHT22;51687;52.160;5.298;2024-03-07T22:22:04;12.70;54.50
43995;DHT22;51687;52.160;5.298;2024-03-07T22:24:32;12.60;54.70
43995;DHT22;51687;52.160;5.298;2024-03-07T22:26:59;12.50;54.80
43995;DHT22;51687;52.160;5.298;2024-03-07T22:29:26;12.40;55.00
43995;DHT22;51687;52.160;5.298;2024-03-07T22:31:53;12.30;55.00
43995;DHT22;51687;52.160;5.298;2024-03-07T22:34:20;12.20;55.10
43995;DHT22;51687;52.160;5.298;2024-03-07T22:36:47;12.10;55.20
43995;DHT22;51687;52.160;5.298;2024-03-07T22:39:17;12.00;55.20